Terminal Aerodrome Forecast
Issued by NWS Billings, MT

Home | Current Version | Previous Version | Text Only | Print | Product List | Glossary On
Versions: 1 2 3 4 5 6 7 8 9 10 11 12 13 14 15 16 17 18 19 20 21 22 23 24 25 26 27 28 29 30 31 32 33
016
FTUS45 KBYZ 232324
TAFSHR
TAF
KSHR 232324Z 2400/2424 VRB06KT P6SM FEW100 BKN180
     FM240300 32016G30KT P6SM VCSH SCT060 BKN090
     FM240900 31008KT P6SM BKN070
     FM241200 VRB06KT P6SM FEW010
     FM241500 31008KT P6SM VCSH SCT020 BKN070
     FM242100 VRB04KT P6SM VCSH SCT025 BKN050 OVC100=

USA.gov is the U.S. government's official web portal to all federal, state and local government web resources and services.